• Join FlightAware (Why Join?)
  • Login
  • US Flag 
06:50AM EST


 

Airport Tracker/Info


-or-


 

Live Flight TrackerFlight Track Log ✈ RPA3901 ✈ 11-Jul-2013 ✈ KEWR - KALB

Flight Track Log - Related Links

Times and Time Zones

All times are in EDT time to prevent confusion due to time zone crossing. See the RPA3901 flight status page for this flight to view local times or setup timezone preferences in your user account.

Time Position Orientation Groundspeed Altitude Reporting Facility
EDT Latitude Longitude Course Direction KTS MPH feet Rate Location/Type
04:37PM 40.7333 -74.1167 90° East 208 239 2,500  Level New York TRACON
04:38PM 40.8000 -74.1333 349° North 232 267 3,800 1,740 Climbing New York TRACON
04:39PM 40.8500 -74.1833 323° Northwest 224 258 6,000 1,140 Climbing New York TRACON
04:40PM 41.0855 -74.1346 North  Level FlightAware Approximate
04:40PM 40.9167 -74.1667 11° North 236 272 6,100  Level New York TRACON
04:41PM 41.1604 -74.0867 74° East  Level FlightAware Approximate
04:41PM 40.9667 -74.1500 14° North 212 244 6,100  Level New York TRACON
04:42PM 41.1833 -73.9566 90° East  Level FlightAware Approximate
04:42PM 41.0333 -74.1500 360° North 212 244 6,100  Level New York TRACON
04:43PM 41.0833 -74.1500 360° North 210 242 6,100  Level New York TRACON
04:44PM 41.1500 -74.1333 11° North 212 244 6,100 900 Level New York TRACON
04:46PM 41.1914 -73.9903 69° East 249 287 8,700 1,500 Climbing Boston Center
04:47PM 41.2092 -73.9081 74° East 249 287 10,400 1,140 Climbing Boston Center
04:48PM 41.2269 -73.8283 73° East 254 292 11,000 300 Climbing Boston Center
04:49PM 41.2489 -73.7294 74° East 254 292 11,000  Level Boston Center
04:50PM 41.2708 -73.6306 74° East 254 292 11,000  Level Boston Center
04:51PM 41.2967 -73.5592 64° Northeast 241 277 11,000  Level Boston Center
04:52PM 41.3472 -73.4936 44° Northeast 230 265 11,000  Level Boston Center
04:53PM 41.3936 -73.4308 45° Northeast 230 265 11,000  Level Boston Center
04:54PM 41.4422 -73.3650 45° Northeast 230 265 11,000  Level Boston Center
04:55PM 41.4925 -73.3019 43° Northeast 236 272 11,000  Level Boston Center
04:56PM 41.5553 -73.2944 North 223 257 11,000  Level Boston Center
04:57PM 41.6175 -73.3147 346° North 218 251 11,000  Level Boston Center
04:58PM 41.6778 -73.3461 339° North 230 265 11,000  Level Boston Center
04:59PM 41.7381 -73.3692 344° North 225 259 11,000  Level Boston Center
05:00PM 41.8067 -73.3981 343° North 232 267 11,000  Level Boston Center
05:01PM 41.8481 -73.4183 340° North 231 266 11,000 60 Level Boston Center
05:02PM 41.9125 -73.4444 343° North 229 264 11,100  Climbing Boston Center
05:03PM 41.9644 -73.4703 340° North 226 260 11,000 -60 Descending Boston Center
05:04PM 42.0308 -73.4939 345° North 225 259 11,000  Level Boston Center
05:05PM 42.0889 -73.5228 340° North 224 258 11,000  Level Boston Center
05:06PM 42.1511 -73.5378 350° North 228 262 11,100  Climbing Boston Center
05:06PM 42.1742 -73.5439 349° North 222 255 11,000 -300 Descending Boston Center
05:07PM 42.2511 -73.5619 350° North 222 255 10,700 -660 Descending Boston Center
05:08PM 42.2822 -73.5653 355° North 234 269 10,000 -1,320 Descending Boston Center
05:09PM 42.3486 -73.5975 340° North 218 251 8,600 -1,380 Descending Boston Center
05:10PM 42.4047 -73.6211 343° North 207 238 7,100 -1,500 Descending Boston Center
05:11PM 42.4358 -73.6328 345° North 211 243 6,300 -1,440 Descending Boston Center
05:12PM 42.4772 -73.6561 337° Northwest 198 228 4,900 -1,200 Descending Boston Center
05:13PM 42.5311 -73.6911 334° Northwest 187 215 4,000 -480 Descending Boston Center
05:14PM 42.5703 -73.7172 334° Northwest 182 209 4,000  Level Boston Center